sensor_id;sensor_type;location;lat;lon;timestamp;P1;durP1;ratioP1;P2;durP2;ratioP2
43070;SDS011;36278;47.952;21.714;2023-11-22T09:45:06;7.53;;;5.03;;
43070;SDS011;36278;47.952;21.714;2023-11-22T09:47:32;9.37;;;5.40;;
43070;SDS011;36278;47.952;21.714;2023-11-22T09:50:01;7.73;;;5.53;;
43070;SDS011;36278;47.952;21.714;2023-11-22T09:52:32;9.33;;;5.40;;
43070;SDS011;36278;47.952;21.714;2023-11-22T09:54:59;7.47;;;5.40;;
43070;SDS011;36278;47.952;21.714;2023-11-22T09:57:27;8.70;;;5.63;;
43070;SDS011;36278;47.952;21.714;2023-11-22T09:59:55;9.50;;;5.80;;
43070;SDS011;36278;47.952;21.714;2023-11-22T10:02:22;9.83;;;5.37;;
43070;SDS011;36278;47.952;21.714;2023-11-22T10:04:52;7.33;;;4.57;;
43070;SDS011;36278;47.952;21.714;2023-11-22T10:07:19;11.30;;;5.50;;
43070;SDS011;36278;47.952;21.714;2023-11-22T10:09:44;13.37;;;5.90;;
43070;SDS011;36278;47.952;21.714;2023-11-22T10:12:11;9.43;;;6.43;;
43070;SDS011;36278;47.952;21.714;2023-11-22T10:14:37;8.00;;;5.77;;
43070;SDS011;36278;47.952;21.714;2023-11-22T10:17:04;8.70;;;5.80;;
43070;SDS011;36278;47.952;21.714;2023-11-22T10:19:30;9.93;;;6.33;;
43070;SDS011;36278;47.952;21.714;2023-11-22T10:22:01;7.77;;;6.03;;
43070;SDS011;36278;47.952;21.714;2023-11-22T10:24:31;9.97;;;5.97;;
43070;SDS011;36278;47.952;21.714;2023-11-22T10:27:03;8.60;;;6.00;;
43070;SDS011;36278;47.952;21.714;2023-11-22T10:29:29;7.00;;;5.60;;
43070;SDS011;36278;47.952;21.714;2023-11-22T10:31:54;9.37;;;5.70;;
43070;SDS011;36278;47.952;21.714;2023-11-22T10:34:23;9.90;;;6.23;;
43070;SDS011;36278;47.952;21.714;2023-11-22T10:36:50;9.43;;;5.97;;
43070;SDS011;36278;47.952;21.714;2023-11-22T10:39:19;8.73;;;6.33;;
43070;SDS011;36278;47.952;21.714;2023-11-22T10:41:45;9.30;;;6.17;;
43070;SDS011;36278;47.952;21.714;2023-11-22T10:44:11;14.53;;;6.30;;
43070;SDS011;36278;47.952;21.714;2023-11-22T10:46:39;8.53;;;6.30;;
43070;SDS011;36278;47.952;21.714;2023-11-22T10:49:07;9.23;;;6.50;;
43070;SDS011;36278;47.952;21.714;2023-11-22T10:51:33;10.47;;;6.23;;
43070;SDS011;36278;47.952;21.714;2023-11-22T10:54:00;13.83;;;6.57;;
43070;SDS011;36278;47.952;21.714;2023-11-22T10:56:32;11.03;;;6.33;;
43070;SDS011;36278;47.952;21.714;2023-11-22T10:59:06;8.07;;;6.50;;
43070;SDS011;36278;47.952;21.714;2023-11-22T11:01:45;9.87;;;6.23;;
43070;SDS011;36278;47.952;21.714;2023-11-22T11:04:24;8.80;;;6.07;;
43070;SDS011;36278;47.952;21.714;2023-11-22T11:06:54;8.47;;;5.93;;
43070;SDS011;36278;47.952;21.714;2023-11-22T11:09:22;8.37;;;5.60;;
43070;SDS011;36278;47.952;21.714;2023-11-22T11:11:52;8.30;;;5.30;;
43070;SDS011;36278;47.952;21.714;2023-11-22T11:14:17;7.60;;;6.20;;
43070;SDS011;36278;47.952;21.714;2023-11-22T11:16:44;9.37;;;5.80;;
43070;SDS011;36278;47.952;21.714;2023-11-22T11:19:15;10.37;;;6.20;;
43070;SDS011;36278;47.952;21.714;2023-11-22T11:21:47;10.80;;;5.50;;
43070;SDS011;36278;47.952;21.714;2023-11-22T11:24:14;8.53;;;6.23;;
43070;SDS011;36278;47.952;21.714;2023-11-22T11:26:40;10.70;;;5.80;;
43070;SDS011;36278;47.952;21.714;2023-11-22T11:29:05;13.80;;;5.93;;
43070;SDS011;36278;47.952;21.714;2023-11-22T11:31:33;7.87;;;5.90;;
43070;SDS011;36278;47.952;21.714;2023-11-22T11:34:07;9.73;;;6.30;;
43070;SDS011;36278;47.952;21.714;2023-11-22T11:36:33;9.97;;;6.33;;
43070;SDS011;36278;47.952;21.714;2023-11-22T11:39:00;8.57;;;5.60;;
43070;SDS011;36278;47.952;21.714;2023-11-22T13:32:19;10.97;;;8.57;;
43070;SDS011;36278;47.952;21.714;2023-11-22T13:34:45;11.57;;;8.23;;
43070;SDS011;36278;47.952;21.714;2023-11-22T13:37:11;18.20;;;9.27;;
43070;SDS011;36278;47.952;21.714;2023-11-22T13:39:36;15.03;;;9.03;;
43070;SDS011;36278;47.952;21.714;2023-11-22T13:42:04;14.47;;;9.10;;
43070;SDS011;36278;47.952;21.714;2023-11-22T13:44:29;15.63;;;9.20;;
43070;SDS011;36278;47.952;21.714;2023-11-22T13:46:55;14.23;;;9.10;;
43070;SDS011;36278;47.952;21.714;2023-11-22T13:49:23;14.77;;;9.13;;
43070;SDS011;36278;47.952;21.714;2023-11-22T13:51:50;15.43;;;9.40;;
43070;SDS011;36278;47.952;21.714;2023-11-22T13:54:16;16.20;;;9.43;;
43070;SDS011;36278;47.952;21.714;2023-11-22T13:56:43;14.70;;;9.70;;
43070;SDS011;36278;47.952;21.714;2023-11-22T13:59:09;15.77;;;9.97;;
43070;SDS011;36278;47.952;21.714;2023-11-22T14:01:37;14.60;;;9.43;;
43070;SDS011;36278;47.952;21.714;2023-11-22T14:04:05;15.60;;;10.67;;
43070;SDS011;36278;47.952;21.714;2023-11-22T14:06:32;14.30;;;10.40;;
43070;SDS011;36278;47.952;21.714;2023-11-22T14:08:58;18.90;;;10.10;;
43070;SDS011;36278;47.952;21.714;2023-11-22T14:11:24;16.90;;;10.67;;
43070;SDS011;36278;47.952;21.714;2023-11-22T14:13:50;15.97;;;10.97;;
43070;SDS011;36278;47.952;21.714;2023-11-22T14:16:15;18.90;;;10.53;;
43070;SDS011;36278;47.952;21.714;2023-11-22T14:18:41;15.47;;;11.30;;
43070;SDS011;36278;47.952;21.714;2023-11-22T14:21:11;18.87;;;12.17;;
43070;SDS011;36278;47.952;21.714;2023-11-22T14:23:37;20.93;;;13.60;;
43070;SDS011;36278;47.952;21.714;2023-11-22T14:26:04;26.37;;;15.33;;
43070;SDS011;36278;47.952;21.714;2023-11-22T14:28:30;18.60;;;12.93;;
43070;SDS011;36278;47.952;21.714;2023-11-22T14:30:56;17.43;;;11.87;;
43070;SDS011;36278;47.952;21.714;2023-11-22T14:33:22;22.37;;;13.27;;
43070;SDS011;36278;47.952;21.714;2023-11-22T14:35:48;18.43;;;11.90;;
43070;SDS011;36278;47.952;21.714;2023-11-22T14:38:14;17.70;;;11.80;;
43070;SDS011;36278;47.952;21.714;2023-11-22T14:40:40;15.80;;;12.03;;
43070;SDS011;36278;47.952;21.714;2023-11-22T14:43:07;21.30;;;12.33;;
43070;SDS011;36278;47.952;21.714;2023-11-22T14:45:33;18.30;;;11.97;;
43070;SDS011;36278;47.952;21.714;2023-11-22T14:48:00;17.33;;;12.53;;
43070;SDS011;36278;47.952;21.714;2023-11-22T14:50:27;20.27;;;12.40;;
43070;SDS011;36278;47.952;21.714;2023-11-22T14:52:54;19.03;;;13.13;;
43070;SDS011;36278;47.952;21.714;2023-11-22T14:55:21;17.87;;;12.30;;
43070;SDS011;36278;47.952;21.714;2023-11-22T14:57:51;17.37;;;12.27;;
43070;SDS011;36278;47.952;21.714;2023-11-22T15:00:23;20.07;;;13.40;;
43070;SDS011;36278;47.952;21.714;2023-11-22T15:02:51;20.40;;;12.27;;
43070;SDS011;36278;47.952;21.714;2023-11-22T15:05:21;18.33;;;12.63;;
43070;SDS011;36278;47.952;21.714;2023-11-22T15:07:47;20.20;;;13.03;;
43070;SDS011;36278;47.952;21.714;2023-11-22T15:10:19;22.03;;;13.43;;
43070;SDS011;36278;47.952;21.714;2023-11-22T15:12:46;21.13;;;12.43;;
43070;SDS011;36278;47.952;21.714;2023-11-22T15:15:12;19.27;;;13.23;;
43070;SDS011;36278;47.952;21.714;2023-11-22T15:17:38;19.87;;;13.70;;
43070;SDS011;36278;47.952;21.714;2023-11-22T15:20:05;24.47;;;13.40;;
43070;SDS011;36278;47.952;21.714;2023-11-22T15:22:34;19.23;;;12.60;;
43070;SDS011;36278;47.952;21.714;2023-11-22T15:25:01;18.73;;;12.47;;
43070;SDS011;36278;47.952;21.714;2023-11-22T15:27:26;18.47;;;12.43;;
43070;SDS011;36278;47.952;21.714;2023-11-22T15:29:52;21.73;;;13.57;;
43070;SDS011;36278;47.952;21.714;2023-11-22T15:32:18;18.83;;;12.80;;
43070;SDS011;36278;47.952;21.714;2023-11-22T15:34:44;19.70;;;12.83;;
43070;SDS011;36278;47.952;21.714;2023-11-22T15:37:10;19.23;;;12.73;;
43070;SDS011;36278;47.952;21.714;2023-11-22T15:39:37;20.13;;;12.90;;
43070;SDS011;36278;47.952;21.714;2023-11-22T15:42:02;17.63;;;11.80;;
43070;SDS011;36278;47.952;21.714;2023-11-22T15:44:31;20.83;;;12.93;;
43070;SDS011;36278;47.952;21.714;2023-11-22T15:46:58;22.47;;;13.17;;
43070;SDS011;36278;47.952;21.714;2023-11-22T15:49:23;18.23;;;11.57;;
43070;SDS011;36278;47.952;21.714;2023-11-22T15:51:49;19.03;;;10.70;;
43070;SDS011;36278;47.952;21.714;2023-11-22T15:54:15;17.70;;;11.37;;
43070;SDS011;36278;47.952;21.714;2023-11-22T15:56:45;16.60;;;11.90;;
43070;SDS011;36278;47.952;21.714;2023-11-22T15:59:11;15.97;;;10.93;;
43070;SDS011;36278;47.952;21.714;2023-11-22T16:01:37;17.00;;;11.27;;
43070;SDS011;36278;47.952;21.714;2023-11-22T16:04:02;20.30;;;12.23;;
43070;SDS011;36278;47.952;21.714;2023-11-22T16:06:30;16.37;;;10.23;;
43070;SDS011;36278;47.952;21.714;2023-11-22T16:08:56;17.87;;;11.37;;
43070;SDS011;36278;47.952;21.714;2023-11-22T16:11:21;17.57;;;11.33;;
43070;SDS011;36278;47.952;21.714;2023-11-22T16:13:48;16.87;;;11.03;;
43070;SDS011;36278;47.952;21.714;2023-11-22T16:16:13;19.00;;;11.53;;
43070;SDS011;36278;47.952;21.714;2023-11-22T16:18:39;14.87;;;11.17;;
43070;SDS011;36278;47.952;21.714;2023-11-22T16:21:05;17.13;;;10.90;;
43070;SDS011;36278;47.952;21.714;2023-11-22T16:23:33;16.13;;;10.93;;
43070;SDS011;36278;47.952;21.714;2023-11-22T16:26:01;18.30;;;10.30;;
43070;SDS011;36278;47.952;21.714;2023-11-22T16:28:29;18.43;;;10.40;;
43070;SDS011;36278;47.952;21.714;2023-11-22T16:30:56;14.93;;;11.00;;
43070;SDS011;36278;47.952;21.714;2023-11-22T16:33:22;15.70;;;9.83;;
43070;SDS011;36278;47.952;21.714;2023-11-22T16:35:47;16.37;;;10.67;;
43070;SDS011;36278;47.952;21.714;2023-11-22T16:38:13;15.33;;;10.53;;
43070;SDS011;36278;47.952;21.714;2023-11-22T16:40:38;15.33;;;9.23;;
43070;SDS011;36278;47.952;21.714;2023-11-22T16:43:04;15.33;;;10.10;;
43070;SDS011;36278;47.952;21.714;2023-11-22T16:45:30;14.50;;;8.60;;
43070;SDS011;36278;47.952;21.714;2023-11-22T16:47:55;14.37;;;8.77;;
43070;SDS011;36278;47.952;21.714;2023-11-22T16:50:23;15.63;;;9.33;;
43070;SDS011;36278;47.952;21.714;2023-11-22T16:52:49;19.00;;;10.13;;
43070;SDS011;36278;47.952;21.714;2023-11-22T16:55:15;14.23;;;9.07;;
43070;SDS011;36278;47.952;21.714;2023-11-22T16:57:41;15.93;;;9.57;;
43070;SDS011;36278;47.952;21.714;2023-11-22T17:00:07;16.30;;;10.03;;
43070;SDS011;36278;47.952;21.714;2023-11-22T17:02:35;16.57;;;9.67;;
43070;SDS011;36278;47.952;21.714;2023-11-22T17:05:01;14.80;;;9.67;;
43070;SDS011;36278;47.952;21.714;2023-11-22T17:07:28;14.43;;;8.40;;
43070;SDS011;36278;47.952;21.714;2023-11-22T17:09:54;13.60;;;9.57;;
43070;SDS011;36278;47.952;21.714;2023-11-22T17:12:20;13.73;;;8.67;;
43070;SDS011;36278;47.952;21.714;2023-11-22T17:14:45;15.10;;;9.63;;
43070;SDS011;36278;47.952;21.714;2023-11-22T17:17:11;14.13;;;9.53;;
43070;SDS011;36278;47.952;21.714;2023-11-22T17:19:37;14.43;;;9.50;;
43070;SDS011;36278;47.952;21.714;2023-11-22T17:22:03;14.93;;;9.03;;
43070;SDS011;36278;47.952;21.714;2023-11-22T17:24:29;14.00;;;8.57;;
43070;SDS011;36278;47.952;21.714;2023-11-22T17:26:55;14.60;;;8.87;;
43070;SDS011;36278;47.952;21.714;2023-11-22T17:29:20;12.47;;;8.00;;
43070;SDS011;36278;47.952;21.714;2023-11-22T17:31:49;11.73;;;7.70;;
43070;SDS011;36278;47.952;21.714;2023-11-22T17:34:15;15.27;;;8.17;;
43070;SDS011;36278;47.952;21.714;2023-11-22T17:36:41;12.23;;;8.53;;
43070;SDS011;36278;47.952;21.714;2023-11-22T17:39:07;12.70;;;8.03;;
43070;SDS011;36278;47.952;21.714;2023-11-22T17:41:34;14.67;;;8.57;;
43070;SDS011;36278;47.952;21.714;2023-11-22T17:44:00;13.23;;;8.87;;
43070;SDS011;36278;47.952;21.714;2023-11-22T17:46:25;13.00;;;8.10;;
43070;SDS011;36278;47.952;21.714;2023-11-22T17:48:51;12.23;;;8.27;;
43070;SDS011;36278;47.952;21.714;2023-11-22T17:51:17;13.37;;;8.40;;
43070;SDS011;36278;47.952;21.714;2023-11-22T17:53:42;11.57;;;7.60;;
43070;SDS011;36278;47.952;21.714;2023-11-22T17:56:08;11.97;;;8.10;;
43070;SDS011;36278;47.952;21.714;2023-11-22T17:58:34;13.17;;;7.73;;
43070;SDS011;36278;47.952;21.714;2023-11-22T18:00:59;14.53;;;8.40;;
43070;SDS011;36278;47.952;21.714;2023-11-22T18:03:25;17.10;;;8.27;;
43070;SDS011;36278;47.952;21.714;2023-11-22T18:05:51;14.17;;;8.33;;
43070;SDS011;36278;47.952;21.714;2023-11-22T18:08:16;12.57;;;7.80;;
43070;SDS011;36278;47.952;21.714;2023-11-22T18:10:45;14.73;;;8.47;;
43070;SDS011;36278;47.952;21.714;2023-11-22T18:13:11;12.93;;;8.37;;
43070;SDS011;36278;47.952;21.714;2023-11-22T18:15:37;15.80;;;8.50;;
43070;SDS011;36278;47.952;21.714;2023-11-22T18:18:06;14.33;;;9.10;;
43070;SDS011;36278;47.952;21.714;2023-11-22T18:20:31;12.27;;;8.40;;
43070;SDS011;36278;47.952;21.714;2023-11-22T18:22:57;15.57;;;8.73;;
43070;SDS011;36278;47.952;21.714;2023-11-22T18:25:22;16.70;;;9.97;;
43070;SDS011;36278;47.952;21.714;2023-11-22T18:27:48;13.63;;;9.03;;
43070;SDS011;36278;47.952;21.714;2023-11-22T18:30:13;14.03;;;8.57;;
43070;SDS011;36278;47.952;21.714;2023-11-22T18:32:39;15.77;;;9.30;;
43070;SDS011;36278;47.952;21.714;2023-11-22T18:35:05;12.70;;;8.90;;
43070;SDS011;36278;47.952;21.714;2023-11-22T18:37:31;15.37;;;9.80;;
43070;SDS011;36278;47.952;21.714;2023-11-22T18:39:57;17.03;;;10.07;;
43070;SDS011;36278;47.952;21.714;2023-11-22T18:42:23;17.40;;;10.57;;
43070;SDS011;36278;47.952;21.714;2023-11-22T18:44:49;16.77;;;9.53;;
43070;SDS011;36278;47.952;21.714;2023-11-22T18:47:15;14.07;;;9.20;;
43070;SDS011;36278;47.952;21.714;2023-11-22T18:49:40;13.23;;;9.43;;
43070;SDS011;36278;47.952;21.714;2023-11-22T18:52:06;13.37;;;9.30;;
43070;SDS011;36278;47.952;21.714;2023-11-22T18:54:32;14.53;;;9.10;;
43070;SDS011;36278;47.952;21.714;2023-11-22T18:56:57;13.97;;;9.70;;
43070;SDS011;36278;47.952;21.714;2023-11-22T18:59:23;15.00;;;8.87;;
43070;SDS011;36278;47.952;21.714;2023-11-22T19:01:49;13.97;;;9.43;;
43070;SDS011;36278;47.952;21.714;2023-11-22T19:04:17;16.03;;;8.97;;
43070;SDS011;36278;47.952;21.714;2023-11-22T19:06:43;14.37;;;9.80;;
43070;SDS011;36278;47.952;21.714;2023-11-22T19:09:09;16.80;;;9.53;;
43070;SDS011;36278;47.952;21.714;2023-11-22T19:11:37;14.37;;;8.30;;
43070;SDS011;36278;47.952;21.714;2023-11-22T19:14:03;13.23;;;8.77;;
43070;SDS011;36278;47.952;21.714;2023-11-22T19:16:28;14.27;;;9.13;;
43070;SDS011;36278;47.952;21.714;2023-11-22T19:18:54;15.67;;;9.00;;
43070;SDS011;36278;47.952;21.714;2023-11-22T19:21:20;13.87;;;9.30;;
43070;SDS011;36278;47.952;21.714;2023-11-22T19:23:47;13.40;;;8.80;;
43070;SDS011;36278;47.952;21.714;2023-11-22T19:26:23;15.07;;;7.97;;
43070;SDS011;36278;47.952;21.714;2023-11-22T19:28:49;14.90;;;8.47;;
43070;SDS011;36278;47.952;21.714;2023-11-22T19:31:16;14.87;;;9.40;;
43070;SDS011;36278;47.952;21.714;2023-11-22T19:33:42;12.87;;;9.30;;
43070;SDS011;36278;47.952;21.714;2023-11-22T19:36:08;16.10;;;9.10;;
43070;SDS011;36278;47.952;21.714;2023-11-22T19:38:34;14.93;;;9.00;;
43070;SDS011;36278;47.952;21.714;2023-11-22T19:41:00;16.47;;;9.53;;
43070;SDS011;36278;47.952;21.714;2023-11-22T19:43:27;13.67;;;9.23;;
43070;SDS011;36278;47.952;21.714;2023-11-22T19:45:53;15.63;;;10.27;;
43070;SDS011;36278;47.952;21.714;2023-11-22T19:48:18;13.17;;;8.80;;
43070;SDS011;36278;47.952;21.714;2023-11-22T19:50:44;13.63;;;9.70;;
43070;SDS011;36278;47.952;21.714;2023-11-22T19:53:10;16.70;;;9.03;;
43070;SDS011;36278;47.952;21.714;2023-11-22T19:55:35;13.20;;;9.43;;
43070;SDS011;36278;47.952;21.714;2023-11-22T19:58:00;16.90;;;10.00;;
43070;SDS011;36278;47.952;21.714;2023-11-22T20:00:29;15.90;;;9.87;;
43070;SDS011;36278;47.952;21.714;2023-11-22T20:02:56;14.07;;;9.20;;
43070;SDS011;36278;47.952;21.714;2023-11-22T20:05:23;20.73;;;9.90;;
43070;SDS011;36278;47.952;21.714;2023-11-22T20:07:49;16.10;;;9.53;;
43070;SDS011;36278;47.952;21.714;2023-11-22T20:10:15;14.30;;;9.57;;
43070;SDS011;36278;47.952;21.714;2023-11-22T20:12:40;16.00;;;9.40;;
43070;SDS011;36278;47.952;21.714;2023-11-22T20:15:09;16.10;;;10.13;;
43070;SDS011;36278;47.952;21.714;2023-11-22T20:17:35;16.07;;;10.23;;
43070;SDS011;36278;47.952;21.714;2023-11-22T20:20:01;15.27;;;10.03;;
43070;SDS011;36278;47.952;21.714;2023-11-22T20:22:29;17.90;;;10.33;;
43070;SDS011;36278;47.952;21.714;2023-11-22T20:24:54;18.80;;;10.60;;
43070;SDS011;36278;47.952;21.714;2023-11-22T20:27:20;16.13;;;10.17;;
43070;SDS011;36278;47.952;21.714;2023-11-22T20:29:45;17.97;;;10.13;;
43070;SDS011;36278;47.952;21.714;2023-11-22T20:32:11;15.03;;;9.63;;
43070;SDS011;36278;47.952;21.714;2023-11-22T20:34:37;16.70;;;9.73;;
43070;SDS011;36278;47.952;21.714;2023-11-22T20:37:03;15.30;;;8.90;;
43070;SDS011;36278;47.952;21.714;2023-11-22T20:39:29;14.30;;;9.50;;
43070;SDS011;36278;47.952;21.714;2023-11-22T20:41:56;15.63;;;9.90;;
43070;SDS011;36278;47.952;21.714;2023-11-22T20:44:22;14.70;;;9.70;;
43070;SDS011;36278;47.952;21.714;2023-11-22T20:46:47;13.07;;;9.43;;
43070;SDS011;36278;47.952;21.714;2023-11-22T20:49:13;16.70;;;9.57;;
43070;SDS011;36278;47.952;21.714;2023-11-22T20:51:39;17.63;;;9.47;;
43070;SDS011;36278;47.952;21.714;2023-11-22T20:54:05;16.23;;;10.80;;
43070;SDS011;36278;47.952;21.714;2023-11-22T20:56:31;15.70;;;10.50;;
43070;SDS011;36278;47.952;21.714;2023-11-22T20:58:56;16.53;;;10.30;;
43070;SDS011;36278;47.952;21.714;2023-11-22T21:01:22;16.23;;;10.63;;
43070;SDS011;36278;47.952;21.714;2023-11-22T21:03:47;16.57;;;10.53;;
43070;SDS011;36278;47.952;21.714;2023-11-22T21:06:13;14.93;;;10.40;;
43070;SDS011;36278;47.952;21.714;2023-11-22T21:08:41;17.80;;;10.17;;
43070;SDS011;36278;47.952;21.714;2023-11-22T21:11:11;16.70;;;9.87;;
43070;SDS011;36278;47.952;21.714;2023-11-22T21:13:38;20.70;;;12.00;;
43070;SDS011;36278;47.952;21.714;2023-11-22T21:16:04;17.83;;;11.13;;
43070;SDS011;36278;47.952;21.714;2023-11-22T21:18:31;17.97;;;11.00;;
43070;SDS011;36278;47.952;21.714;2023-11-22T21:20:57;16.63;;;10.83;;
43070;SDS011;36278;47.952;21.714;2023-11-22T21:23:22;17.17;;;11.90;;
43070;SDS011;36278;47.952;21.714;2023-11-22T21:25:48;17.97;;;12.13;;
43070;SDS011;36278;47.952;21.714;2023-11-22T21:28:15;17.63;;;11.60;;
43070;SDS011;36278;47.952;21.714;2023-11-22T21:30:42;18.87;;;11.83;;
43070;SDS011;36278;47.952;21.714;2023-11-22T21:33:09;17.00;;;11.27;;
43070;SDS011;36278;47.952;21.714;2023-11-22T21:35:34;16.90;;;11.00;;
43070;SDS011;36278;47.952;21.714;2023-11-22T21:38:00;17.20;;;11.10;;
43070;SDS011;36278;47.952;21.714;2023-11-22T21:40:26;13.47;;;9.87;;
43070;SDS011;36278;47.952;21.714;2023-11-22T21:42:52;17.27;;;11.03;;
43070;SDS011;36278;47.952;21.714;2023-11-22T21:45:18;15.10;;;10.10;;
43070;SDS011;36278;47.952;21.714;2023-11-22T21:47:44;16.20;;;10.97;;
43070;SDS011;36278;47.952;21.714;2023-11-22T21:50:10;17.97;;;11.70;;
43070;SDS011;36278;47.952;21.714;2023-11-22T21:52:37;18.93;;;10.97;;
43070;SDS011;36278;47.952;21.714;2023-11-22T21:55:05;17.67;;;11.23;;
43070;SDS011;36278;47.952;21.714;2023-11-22T21:57:31;20.23;;;11.83;;
43070;SDS011;36278;47.952;21.714;2023-11-22T21:59:57;16.97;;;11.60;;
43070;SDS011;36278;47.952;21.714;2023-11-22T22:02:24;17.33;;;11.53;;
43070;SDS011;36278;47.952;21.714;2023-11-22T22:04:49;17.50;;;10.90;;
43070;SDS011;36278;47.952;21.714;2023-11-22T22:07:15;18.33;;;12.10;;
43070;SDS011;36278;47.952;21.714;2023-11-22T22:09:42;18.67;;;11.80;;
43070;SDS011;36278;47.952;21.714;2023-11-22T22:12:08;18.23;;;12.13;;
43070;SDS011;36278;47.952;21.714;2023-11-22T22:14:33;18.77;;;12.00;;
43070;SDS011;36278;47.952;21.714;2023-11-22T22:16:59;19.03;;;12.87;;
43070;SDS011;36278;47.952;21.714;2023-11-22T22:19:24;21.03;;;12.37;;
43070;SDS011;36278;47.952;21.714;2023-11-22T22:21:50;20.87;;;12.07;;
43070;SDS011;36278;47.952;21.714;2023-11-22T22:24:15;16.53;;;12.00;;
43070;SDS011;36278;47.952;21.714;2023-11-22T22:26:41;18.93;;;12.20;;
43070;SDS011;36278;47.952;21.714;2023-11-22T22:29:07;18.23;;;11.57;;
43070;SDS011;36278;47.952;21.714;2023-11-22T22:31:38;18.10;;;12.10;;
43070;SDS011;36278;47.952;21.714;2023-11-22T22:34:04;18.90;;;12.40;;
43070;SDS011;36278;47.952;21.714;2023-11-22T22:36:29;20.23;;;11.60;;
43070;SDS011;36278;47.952;21.714;2023-11-22T22:38:55;22.50;;;12.90;;
43070;SDS011;36278;47.952;21.714;2023-11-22T22:41:21;19.80;;;12.37;;
43070;SDS011;36278;47.952;21.714;2023-11-22T22:43:48;19.43;;;12.10;;
43070;SDS011;36278;47.952;21.714;2023-11-22T22:46:14;17.53;;;11.67;;
43070;SDS011;36278;47.952;21.714;2023-11-22T22:48:41;18.20;;;11.53;;
43070;SDS011;36278;47.952;21.714;2023-11-22T22:51:14;18.77;;;12.10;;
43070;SDS011;36278;47.952;21.714;2023-11-22T22:53:40;18.73;;;12.38;;
43070;SDS011;36278;47.952;21.714;2023-11-22T22:56:06;17.57;;;11.63;;
43070;SDS011;36278;47.952;21.714;2023-11-22T22:58:33;18.13;;;11.17;;
43070;SDS011;36278;47.952;21.714;2023-11-22T23:01:02;16.07;;;12.13;;
43070;SDS011;36278;47.952;21.714;2023-11-22T23:03:29;18.43;;;11.80;;
43070;SDS011;36278;47.952;21.714;2023-11-22T23:05:55;20.03;;;11.20;;
43070;SDS011;36278;47.952;21.714;2023-11-22T23:08:20;17.87;;;12.40;;
43070;SDS011;36278;47.952;21.714;2023-11-22T23:10:46;17.37;;;11.07;;
43070;SDS011;36278;47.952;21.714;2023-11-22T23:13:12;20.70;;;12.83;;
43070;SDS011;36278;47.952;21.714;2023-11-22T23:15:37;19.23;;;12.77;;
43070;SDS011;36278;47.952;21.714;2023-11-22T23:18:03;20.20;;;12.50;;
43070;SDS011;36278;47.952;21.714;2023-11-22T23:20:31;18.13;;;12.50;;
43070;SDS011;36278;47.952;21.714;2023-11-22T23:22:57;18.00;;;12.70;;
43070;SDS011;36278;47.952;21.714;2023-11-22T23:25:23;19.50;;;12.20;;
43070;SDS011;36278;47.952;21.714;2023-11-22T23:27:48;19.33;;;12.10;;
43070;SDS011;36278;47.952;21.714;2023-11-22T23:30:14;17.37;;;11.53;;
43070;SDS011;36278;47.952;21.714;2023-11-22T23:32:41;18.00;;;11.77;;
43070;SDS011;36278;47.952;21.714;2023-11-22T23:35:08;17.33;;;11.73;;
43070;SDS011;36278;47.952;21.714;2023-11-22T23:37:40;18.83;;;12.17;;
43070;SDS011;36278;47.952;21.714;2023-11-22T23:40:12;19.30;;;12.23;;
43070;SDS011;36278;47.952;21.714;2023-11-22T23:42:39;17.50;;;12.67;;
43070;SDS011;36278;47.952;21.714;2023-11-22T23:45:06;19.80;;;12.63;;
43070;SDS011;36278;47.952;21.714;2023-11-22T23:47:34;18.80;;;12.57;;
43070;SDS011;36278;47.952;21.714;2023-11-22T23:50:00;19.93;;;13.03;;
43070;SDS011;36278;47.952;21.714;2023-11-22T23:52:27;18.43;;;13.10;;
43070;SDS011;36278;47.952;21.714;2023-11-22T23:54:53;17.93;;;11.43;;
43070;SDS011;36278;47.952;21.714;2023-11-22T23:57:22;20.40;;;13.07;;
43070;SDS011;36278;47.952;21.714;2023-11-22T23:59:47;17.03;;;11.70;;
